createdAt,value
2023-03-29T00:00:12.507Z,2.30
2023-03-29T00:02:40.836Z,2.00
2023-03-29T00:05:10.205Z,2.37
2023-03-29T00:07:42.532Z,2.83
2023-03-29T00:10:11.714Z,1.93
2023-03-29T00:12:42.719Z,3.27
2023-03-29T00:15:11.181Z,1.73
2023-03-29T00:17:39.445Z,2.03
2023-03-29T00:20:10.118Z,2.60
2023-03-29T00:22:39.790Z,2.40
2023-03-29T00:25:08.338Z,2.17
2023-03-29T00:27:36.661Z,2.40
2023-03-29T00:30:06.974Z,2.50
2023-03-29T00:32:35.856Z,2.27
2023-03-29T00:35:05.135Z,3.10
2023-03-29T00:37:33.372Z,1.70
2023-03-29T00:40:01.613Z,2.77
2023-03-29T00:42:29.890Z,2.53
2023-03-29T00:45:02.920Z,1.70
2023-03-29T00:47:34.403Z,2.10
2023-03-29T00:50:04.538Z,2.60
2023-03-29T00:52:33.460Z,2.60
2023-03-29T00:55:04.076Z,2.70
2023-03-29T00:57:33.220Z,2.40
2023-03-29T01:00:04.777Z,2.70
2023-03-29T01:02:39.539Z,2.13
2023-03-29T01:05:09.718Z,2.43
2023-03-29T01:07:40.332Z,2.60
2023-03-29T01:10:12.012Z,2.57
2023-03-29T01:12:42.190Z,2.73
2023-03-29T01:15:12.119Z,2.47
2023-03-29T01:17:43.269Z,3.23
2023-03-29T01:20:14.997Z,3.00
2023-03-29T01:22:51.404Z,2.90
2023-03-29T01:25:26.227Z,2.80
2023-03-29T01:27:57.292Z,2.20
2023-03-29T01:30:28.897Z,2.50
2023-03-29T01:32:59.696Z,2.23
2023-03-29T01:35:32.833Z,2.90
2023-03-29T01:38:03.566Z,2.10
2023-03-29T01:40:34.118Z,2.87
2023-03-29T01:43:07.439Z,2.93
2023-03-29T01:45:38.541Z,2.00
2023-03-29T01:48:09.712Z,2.17
2023-03-29T01:50:40.962Z,2.37
2023-03-29T01:53:11.684Z,2.13
2023-03-29T01:55:41.369Z,2.87
2023-03-29T01:58:12.306Z,2.53
2023-03-29T02:00:41.172Z,2.17
2023-03-29T02:03:11.068Z,2.60
2023-03-29T02:05:41.022Z,2.40
2023-03-29T02:08:10.826Z,2.70
2023-03-29T02:10:39.602Z,2.40
2023-03-29T02:13:07.827Z,2.40
2023-03-29T02:15:37.443Z,2.70
2023-03-29T02:18:06.649Z,2.70
2023-03-29T02:20:39.151Z,2.27
2023-03-29T02:23:09.652Z,3.33
2023-03-29T02:25:38.546Z,2.50
2023-03-29T02:28:07.674Z,2.00
2023-03-29T02:30:40.826Z,3.00
2023-03-29T02:33:11.299Z,2.60
2023-03-29T02:35:43.012Z,2.80
2023-03-29T02:38:11.497Z,2.53
2023-03-29T02:40:41.939Z,2.50
2023-03-29T02:43:11.510Z,2.50
2023-03-29T02:45:42.297Z,3.17
2023-03-29T02:48:12.370Z,2.60
2023-03-29T02:50:41.748Z,2.53
2023-03-29T02:53:14.159Z,2.30
2023-03-29T02:55:42.417Z,2.77
2023-03-29T02:58:10.656Z,4.13
2023-03-29T03:00:41.038Z,3.10
2023-03-29T03:03:11.778Z,2.80
2023-03-29T03:05:40.672Z,2.70
2023-03-29T03:08:09.032Z,3.00
2023-03-29T03:10:37.760Z,2.37
2023-03-29T03:13:06.082Z,2.30
2023-03-29T03:15:35.800Z,2.67
2023-03-29T03:18:04.503Z,2.70
2023-03-29T03:20:34.697Z,3.03
2023-03-29T03:23:03.408Z,2.80
2023-03-29T03:25:32.383Z,2.30
2023-03-29T03:28:01.096Z,2.63
2023-03-29T03:30:29.641Z,2.80
2023-03-29T03:32:57.910Z,2.50
2023-03-29T03:35:26.174Z,2.80
2023-03-29T03:37:55.745Z,2.43
2023-03-29T03:40:25.526Z,2.93
2023-03-29T03:42:54.737Z,2.90
2023-03-29T03:45:22.954Z,3.10
2023-03-29T03:47:51.801Z,2.40
2023-03-29T03:50:20.225Z,2.70
2023-03-29T03:52:48.485Z,2.60
2023-03-29T03:55:18.183Z,3.30
2023-03-29T03:57:47.946Z,3.10
2023-03-29T04:00:20.333Z,2.90
2023-03-29T04:02:50.692Z,2.60
2023-03-29T04:05:19.930Z,2.60
2023-03-29T04:07:48.808Z,2.70
2023-03-29T04:10:18.402Z,2.90
2023-03-29T04:12:46.707Z,2.90
2023-03-29T04:15:14.967Z,2.63
2023-03-29T04:17:43.197Z,2.70
2023-03-29T04:20:12.852Z,2.77
2023-03-29T04:22:41.842Z,2.90
2023-03-29T04:25:11.653Z,1.87
2023-03-29T04:27:41.791Z,2.80
2023-03-29T04:30:10.744Z,2.83
2023-03-29T04:32:38.940Z,2.73
2023-03-29T04:35:08.005Z,2.73
2023-03-29T04:37:36.837Z,2.30
2023-03-29T04:40:09.110Z,2.77
2023-03-29T04:42:37.441Z,3.37
2023-03-29T04:45:07.958Z,2.27
2023-03-29T04:47:36.629Z,3.40
2023-03-29T04:50:05.205Z,2.57
2023-03-29T04:52:33.493Z,4.00
2023-03-29T04:55:01.964Z,2.83
2023-03-29T04:57:30.723Z,2.87
2023-03-29T04:59:59.231Z,2.77
2023-03-29T05:02:32.222Z,2.50
2023-03-29T05:05:02.430Z,3.63
2023-03-29T05:07:30.809Z,3.70
2023-03-29T05:09:59.689Z,2.60
2023-03-29T05:12:27.851Z,2.73
2023-03-29T05:14:56.896Z,3.07
2023-03-29T05:17:26.734Z,2.80
2023-03-29T05:19:56.552Z,2.53
2023-03-29T05:22:24.877Z,2.97
2023-03-29T05:24:53.293Z,2.60
2023-03-29T05:27:22.868Z,2.80
2023-03-29T05:29:51.156Z,3.30
2023-03-29T05:32:19.752Z,3.00
2023-03-29T05:34:48.001Z,2.93
2023-03-29T05:37:17.818Z,2.50
2023-03-29T05:39:46.141Z,2.63
2023-03-29T05:42:15.598Z,3.33
2023-03-29T05:44:45.943Z,3.30
2023-03-29T05:47:14.231Z,3.00
2023-03-29T05:49:42.577Z,2.73
2023-03-29T05:52:11.662Z,3.07
2023-03-29T05:54:41.387Z,2.80
2023-03-29T05:57:09.696Z,3.17
2023-03-29T05:59:38.507Z,3.00
2023-03-29T06:02:06.881Z,3.27
2023-03-29T06:04:36.445Z,3.40
2023-03-29T06:07:05.074Z,3.07
2023-03-29T06:09:33.609Z,2.80
2023-03-29T06:12:03.991Z,3.03
2023-03-29T06:14:32.661Z,2.90
2023-03-29T06:17:01.635Z,3.17
2023-03-29T06:19:29.944Z,3.03
2023-03-29T06:21:58.195Z,3.47
2023-03-29T06:24:27.090Z,3.10
2023-03-29T06:26:56.416Z,3.23
2023-03-29T06:29:26.061Z,2.80
2023-03-29T06:31:56.182Z,2.70
2023-03-29T06:34:24.454Z,3.00
2023-03-29T06:36:52.925Z,3.37
2023-03-29T06:39:21.132Z,3.40
2023-03-29T06:41:49.390Z,2.97
2023-03-29T06:44:17.647Z,4.07
2023-03-29T06:46:47.315Z,3.70
2023-03-29T06:49:15.624Z,3.43
2023-03-29T06:51:43.840Z,3.87
2023-03-29T06:54:12.517Z,3.30
2023-03-29T06:56:42.943Z,3.03
2023-03-29T06:59:11.526Z,3.30
2023-03-29T07:01:39.842Z,3.63
2023-03-29T07:04:10.035Z,4.07
2023-03-29T07:06:39.155Z,2.73
2023-03-29T07:09:07.905Z,3.53
2023-03-29T07:11:36.353Z,3.57
2023-03-29T07:14:04.694Z,2.60
2023-03-29T07:16:33.552Z,3.53
2023-03-29T07:19:03.673Z,4.20
2023-03-29T07:21:34.864Z,3.23
2023-03-29T07:24:04.801Z,2.87
2023-03-29T07:26:33.054Z,3.30
2023-03-29T07:29:01.350Z,3.00
2023-03-29T07:31:30.658Z,3.33
2023-03-29T07:34:00.643Z,3.10
2023-03-29T07:36:29.574Z,2.83
2023-03-29T07:39:01.828Z,2.97
2023-03-29T07:41:30.066Z,2.97
2023-03-29T07:43:59.040Z,2.90
2023-03-29T07:46:27.359Z,3.43
2023-03-29T07:48:56.730Z,3.10
2023-03-29T07:51:27.755Z,3.43
2023-03-29T07:53:56.117Z,3.10
2023-03-29T07:56:26.541Z,3.60
2023-03-29T07:58:54.774Z,3.40
2023-03-29T08:01:23.084Z,3.67
2023-03-29T08:03:52.226Z,5.53
2023-03-29T08:06:21.110Z,2.97
2023-03-29T08:08:49.396Z,3.33
2023-03-29T08:11:17.784Z,3.37
2023-03-29T08:13:47.474Z,3.20
2023-03-29T08:16:15.770Z,3.67
2023-03-29T08:18:44.036Z,4.20
2023-03-29T08:21:14.585Z,3.20
2023-03-29T08:23:42.912Z,3.60
2023-03-29T08:26:11.476Z,3.37
2023-03-29T08:28:39.760Z,4.07
2023-03-29T08:31:10.761Z,3.27
2023-03-29T08:33:39.339Z,3.63
2023-03-29T08:36:08.359Z,3.10
2023-03-29T08:38:36.853Z,4.40
2023-03-29T08:41:12.773Z,3.67
2023-03-29T08:44:06.415Z,3.40
2023-03-29T08:46:39.179Z,3.83
2023-03-29T08:49:08.882Z,3.40
2023-03-29T08:51:38.397Z,3.60
2023-03-29T08:54:08.292Z,3.80
2023-03-29T08:56:41.037Z,3.60
2023-03-29T08:59:15.769Z,3.80
2023-03-29T09:01:47.405Z,3.57
2023-03-29T09:04:18.928Z,3.20
2023-03-29T09:06:47.487Z,3.80
2023-03-29T09:09:17.321Z,2.83
2023-03-29T09:11:54.257Z,3.07
2023-03-29T09:14:32.435Z,3.40
2023-03-29T09:17:07.214Z,3.50
2023-03-29T09:19:39.273Z,3.33
2023-03-29T09:22:12.037Z,2.60
2023-03-29T09:24:43.652Z,4.17
2023-03-29T09:27:12.740Z,3.10
2023-03-29T09:29:57.346Z,3.57
2023-03-29T09:32:30.561Z,3.30
2023-03-29T09:35:03.358Z,3.13
2023-03-29T09:37:33.776Z,3.97
2023-03-29T09:40:03.903Z,2.80
2023-03-29T09:42:33.471Z,3.83
2023-03-29T09:45:08.524Z,3.27
2023-03-29T09:47:39.881Z,3.50
2023-03-29T09:50:23.025Z,3.17
2023-03-29T09:52:58.359Z,4.57
2023-03-29T09:55:28.506Z,6.07
2023-03-29T09:57:57.565Z,3.00
2023-03-29T10:00:27.049Z,3.90
2023-03-29T10:02:59.976Z,3.13
2023-03-29T10:05:32.608Z,3.50
2023-03-29T10:08:02.206Z,3.90
2023-03-29T10:10:31.921Z,3.60
2023-03-29T10:13:01.854Z,3.80
2023-03-29T10:15:30.866Z,3.93
2023-03-29T10:18:01.038Z,4.90
2023-03-29T10:20:29.619Z,3.90
2023-03-29T10:22:58.769Z,3.13
2023-03-29T10:25:28.543Z,4.33
2023-03-29T10:27:59.055Z,3.93
2023-03-29T10:30:28.124Z,3.80
2023-03-29T10:32:58.815Z,3.80
2023-03-29T10:35:30.710Z,3.50
2023-03-29T10:38:00.293Z,3.53
2023-03-29T10:40:30.685Z,2.80
2023-03-29T10:43:02.557Z,3.63
2023-03-29T10:45:31.673Z,3.90
2023-03-29T10:48:00.410Z,4.17
2023-03-29T10:50:34.316Z,3.43
2023-03-29T10:53:03.150Z,4.10
2023-03-29T10:55:36.681Z,4.60
2023-03-29T10:58:09.607Z,4.13
2023-03-29T11:00:41.450Z,3.43
2023-03-29T11:03:18.810Z,3.33
2023-03-29T11:05:52.294Z,4.27
2023-03-29T11:08:29.091Z,2.47
2023-03-29T11:11:04.054Z,3.30
2023-03-29T11:13:36.104Z,2.90
2023-03-29T11:16:11.348Z,3.87
2023-03-29T11:18:45.618Z,2.93
2023-03-29T11:21:22.074Z,2.97
2023-03-29T11:23:54.927Z,3.30
2023-03-29T11:26:27.116Z,4.17
2023-03-29T11:28:58.590Z,3.13
2023-03-29T11:31:33.361Z,3.00
2023-03-29T11:34:09.687Z,3.67
2023-03-29T11:36:44.563Z,3.20
2023-03-29T11:39:17.501Z,2.83
2023-03-29T11:41:46.845Z,3.70
2023-03-29T11:44:17.622Z,3.00
2023-03-29T11:46:47.778Z,2.17
2023-03-29T11:49:19.991Z,2.93
2023-03-29T11:51:52.171Z,2.43
2023-03-29T11:54:24.240Z,2.20
2023-03-29T11:56:56.779Z,2.37
2023-03-29T11:59:27.231Z,2.50
2023-03-29T12:01:57.361Z,2.37
2023-03-29T12:04:27.519Z,2.43
2023-03-29T12:07:02.925Z,2.20
2023-03-29T12:09:34.450Z,2.67
2023-03-29T12:12:05.350Z,2.60
2023-03-29T12:14:39.224Z,2.00
2023-03-29T12:17:11.230Z,2.33
2023-03-29T12:19:44.261Z,2.17
2023-03-29T12:22:13.859Z,1.73
2023-03-29T12:24:43.888Z,1.90
2023-03-29T12:27:20.313Z,2.30
2023-03-29T12:30:03.622Z,2.20
2023-03-29T12:32:37.137Z,1.70
2023-03-29T12:35:17.640Z,2.27
2023-03-29T12:37:52.271Z,1.80
2023-03-29T12:40:21.485Z,2.17
2023-03-29T12:42:53.152Z,2.37
2023-03-29T12:45:22.493Z,1.90
2023-03-29T12:47:52.930Z,1.90
2023-03-29T12:50:28.100Z,2.00
2023-03-29T12:53:05.261Z,2.50
2023-03-29T12:55:37.680Z,2.20
2023-03-29T12:58:07.412Z,2.03
2023-03-29T13:00:45.037Z,2.63
2023-03-29T13:03:24.343Z,2.50
2023-03-29T13:06:02.489Z,2.40
2023-03-29T13:08:38.454Z,2.83
2023-03-29T13:11:07.466Z,2.13
2023-03-29T13:13:36.707Z,2.13
2023-03-29T13:16:13.246Z,1.90
2023-03-29T13:18:49.361Z,1.83
2023-03-29T13:21:21.527Z,1.70
2023-03-29T13:23:55.234Z,1.83
2023-03-29T13:26:28.628Z,1.83
2023-03-29T13:29:04.762Z,1.60
2023-03-29T13:31:36.889Z,1.70
2023-03-29T13:34:07.012Z,2.70
2023-03-29T13:36:43.291Z,1.67
2023-03-29T13:39:17.886Z,2.07
2023-03-29T13:41:48.305Z,1.63
2023-03-29T13:44:27.262Z,1.30
2023-03-29T13:47:16.280Z,1.60
2023-03-29T13:49:45.397Z,2.00
2023-03-29T13:52:16.395Z,1.73
2023-03-29T13:54:49.791Z,2.23
2023-03-29T13:57:18.818Z,1.70
2023-03-29T13:59:51.148Z,1.90
2023-03-29T14:02:23.568Z,2.20
2023-03-29T14:04:53.405Z,2.10
2023-03-29T14:07:26.306Z,1.70
2023-03-29T14:09:58.152Z,2.43
2023-03-29T14:12:36.020Z,1.97
2023-03-29T14:15:06.182Z,2.17
2023-03-29T14:17:35.637Z,1.70
2023-03-29T14:20:08.790Z,2.23
2023-03-29T14:22:37.364Z,2.10
2023-03-29T14:25:09.529Z,2.20
2023-03-29T14:27:38.337Z,1.80
2023-03-29T14:30:20.121Z,1.93
2023-03-29T14:32:50.276Z,1.97
2023-03-29T14:35:18.701Z,2.00
2023-03-29T14:37:47.823Z,1.40
2023-03-29T14:40:20.342Z,1.60
2023-03-29T14:42:50.802Z,2.33
2023-03-29T14:45:20.684Z,2.00
2023-03-29T14:47:49.150Z,1.53
2023-03-29T14:50:19.786Z,1.80
2023-03-29T14:52:51.745Z,2.20
2023-03-29T14:55:23.914Z,1.40
2023-03-29T14:57:52.846Z,1.93
2023-03-29T15:00:26.296Z,2.00
2023-03-29T15:02:58.521Z,1.33
2023-03-29T15:05:32.310Z,2.10
2023-03-29T15:08:00.754Z,1.77
2023-03-29T15:10:33.262Z,1.47
2023-03-29T15:13:03.505Z,1.77
2023-03-29T15:15:33.410Z,1.33
2023-03-29T15:18:02.407Z,1.47
2023-03-29T15:20:31.858Z,1.50
2023-03-29T15:23:01.408Z,1.20
2023-03-29T15:25:34.377Z,1.70
2023-03-29T15:28:02.668Z,1.20
2023-03-29T15:30:34.736Z,1.33
2023-03-29T15:33:17.823Z,1.33
2023-03-29T15:35:48.312Z,1.70
2023-03-29T15:38:16.627Z,1.60
2023-03-29T15:40:46.919Z,1.90
2023-03-29T15:43:15.394Z,2.33
2023-03-29T15:45:44.127Z,1.20
2023-03-29T15:48:16.371Z,1.67
2023-03-29T15:50:45.085Z,1.50
2023-03-29T15:53:15.544Z,1.80
2023-03-29T15:55:46.835Z,1.67
2023-03-29T15:58:16.417Z,1.53
2023-03-29T16:00:45.969Z,1.93
2023-03-29T16:03:16.063Z,1.27
2023-03-29T16:05:44.454Z,1.90
2023-03-29T16:08:12.940Z,1.70
2023-03-29T16:10:41.790Z,1.90
2023-03-29T16:13:12.826Z,1.90
2023-03-29T16:15:42.260Z,1.80
2023-03-29T16:18:10.621Z,2.17
2023-03-29T16:20:39.415Z,2.00
2023-03-29T16:23:09.393Z,1.80
2023-03-29T16:25:39.783Z,1.73
2023-03-29T16:28:09.098Z,1.60
2023-03-29T16:30:39.463Z,1.77
2023-03-29T16:33:08.759Z,2.00
2023-03-29T16:35:39.796Z,2.30
2023-03-29T16:38:13.216Z,2.07
2023-03-29T16:40:42.575Z,2.20
2023-03-29T16:43:16.091Z,2.23
2023-03-29T16:45:46.044Z,2.00
2023-03-29T16:48:14.848Z,2.40
2023-03-29T16:50:43.287Z,2.23
2023-03-29T16:53:11.957Z,2.30
2023-03-29T16:55:40.427Z,2.73
2023-03-29T16:58:08.899Z,2.10
2023-03-29T17:00:37.902Z,1.93
2023-03-29T17:03:07.956Z,3.00
2023-03-29T17:05:40.002Z,2.07
2023-03-29T17:08:10.058Z,2.53
2023-03-29T17:10:38.483Z,3.67
2023-03-29T17:13:06.886Z,2.30
2023-03-29T17:15:37.416Z,2.70
2023-03-29T17:18:08.638Z,2.40
2023-03-29T17:20:39.845Z,3.03
2023-03-29T17:23:08.989Z,2.10
2023-03-29T17:25:37.338Z,2.33
2023-03-29T17:28:08.491Z,3.23
2023-03-29T17:30:37.350Z,2.17
2023-03-29T17:33:06.138Z,2.90
2023-03-29T17:35:35.956Z,2.50
2023-03-29T17:38:04.923Z,2.93
2023-03-29T17:40:33.292Z,2.47
2023-03-29T17:43:01.508Z,2.80
2023-03-29T17:45:35.970Z,2.57
2023-03-29T17:48:06.174Z,2.30
2023-03-29T17:50:36.774Z,3.10
2023-03-29T17:53:05.469Z,2.90
2023-03-29T17:55:33.980Z,2.63
2023-03-29T17:58:02.481Z,3.10
2023-03-29T18:00:31.087Z,2.77
2023-03-29T18:02:59.858Z,2.57
2023-03-29T18:05:28.203Z,2.50
2023-03-29T18:07:58.089Z,3.20
2023-03-29T18:10:27.687Z,3.00
2023-03-29T18:12:56.155Z,2.50
2023-03-29T18:15:24.414Z,2.67
2023-03-29T18:17:52.803Z,3.30
2023-03-29T18:20:21.189Z,2.30
2023-03-29T18:22:49.505Z,2.50
2023-03-29T18:25:20.147Z,2.67
2023-03-29T18:27:48.416Z,3.63
2023-03-29T18:30:17.217Z,2.30
2023-03-29T18:32:45.801Z,3.20
2023-03-29T18:35:14.096Z,2.97
2023-03-29T18:37:42.491Z,3.23
2023-03-29T18:40:11.081Z,3.00
2023-03-29T18:42:40.694Z,2.33
2023-03-29T18:45:09.683Z,3.03
2023-03-29T18:47:39.438Z,3.07
2023-03-29T18:50:09.332Z,2.57
2023-03-29T18:52:37.612Z,3.00
2023-03-29T18:55:06.703Z,3.40
2023-03-29T18:57:35.089Z,2.80
2023-03-29T19:00:10.517Z,2.00
2023-03-29T19:02:38.915Z,3.27
2023-03-29T19:05:07.765Z,2.50
2023-03-29T19:07:36.098Z,2.90
2023-03-29T19:10:04.666Z,2.03
2023-03-29T19:12:33.622Z,2.93
2023-03-29T19:15:01.915Z,2.60
2023-03-29T19:17:31.537Z,3.17
2023-03-29T19:19:59.773Z,2.20
2023-03-29T19:22:29.880Z,2.73
2023-03-29T19:24:58.109Z,2.67
2023-03-29T19:27:26.596Z,2.60
2023-03-29T19:29:55.298Z,3.00
2023-03-29T19:32:23.718Z,2.70
2023-03-29T19:34:53.323Z,2.80
2023-03-29T19:37:22.815Z,3.73
2023-03-29T19:39:51.503Z,3.60
2023-03-29T19:42:19.783Z,2.50
2023-03-29T19:44:50.974Z,2.47
2023-03-29T19:47:19.162Z,2.60
2023-03-29T19:49:47.477Z,4.40
2023-03-29T19:52:17.397Z,2.07
2023-03-29T19:54:45.949Z,2.30
2023-03-29T19:57:14.303Z,2.37
2023-03-29T19:59:43.023Z,2.90
2023-03-29T20:02:12.443Z,2.13
2023-03-29T20:04:40.935Z,2.57
2023-03-29T20:07:09.541Z,2.57
2023-03-29T20:09:39.160Z,2.70
2023-03-29T20:12:07.501Z,2.07
2023-03-29T20:14:37.915Z,3.37
2023-03-29T20:17:06.170Z,2.47
2023-03-29T20:19:36.662Z,2.47
2023-03-29T20:22:06.038Z,2.60
2023-03-29T20:24:37.328Z,2.87
2023-03-29T20:27:07.123Z,2.30
2023-03-29T20:29:35.616Z,2.80
2023-03-29T20:32:04.064Z,2.63
2023-03-29T20:34:32.378Z,2.43
2023-03-29T20:37:01.659Z,2.30
2023-03-29T20:39:31.502Z,2.50
2023-03-29T20:42:00.572Z,2.83
2023-03-29T20:44:31.562Z,2.30
2023-03-29T20:47:05.072Z,2.80
2023-03-29T20:49:37.077Z,2.80
2023-03-29T20:52:08.045Z,2.30
2023-03-29T20:54:36.978Z,2.10
2023-03-29T20:57:05.479Z,3.07
2023-03-29T20:59:35.629Z,2.50
2023-03-29T21:02:03.866Z,2.07
2023-03-29T21:04:32.182Z,2.40
2023-03-29T21:07:02.956Z,2.10
2023-03-29T21:09:34.183Z,2.70
2023-03-29T21:12:02.568Z,2.10
2023-03-29T21:14:33.238Z,2.40
2023-03-29T21:17:02.988Z,2.13
2023-03-29T21:19:31.328Z,2.30
2023-03-29T21:21:59.539Z,2.13
2023-03-29T21:24:27.747Z,2.13
2023-03-29T21:26:56.233Z,4.53
2023-03-29T21:29:24.580Z,2.63
2023-03-29T21:31:53.009Z,2.40
2023-03-29T21:34:22.717Z,2.60
2023-03-29T21:36:52.492Z,2.30
2023-03-29T21:39:20.720Z,2.80
2023-03-29T21:41:49.003Z,2.73
2023-03-29T21:44:17.367Z,2.60
2023-03-29T21:46:45.789Z,2.00
2023-03-29T21:49:14.109Z,3.10
2023-03-29T21:51:43.631Z,2.53
2023-03-29T21:54:12.048Z,2.50
2023-03-29T21:56:40.453Z,2.30
2023-03-29T21:59:08.779Z,2.27
2023-03-29T22:01:37.098Z,2.67
2023-03-29T22:04:05.401Z,2.43
2023-03-29T22:06:33.703Z,2.50
2023-03-29T22:09:03.510Z,2.23
2023-03-29T22:11:32.369Z,2.30
2023-03-29T22:14:00.753Z,2.47
2023-03-29T22:16:31.228Z,2.50
2023-03-29T22:18:59.486Z,2.00
2023-03-29T22:21:31.052Z,1.97
2023-03-29T22:24:00.475Z,2.40
2023-03-29T22:26:30.877Z,2.53
2023-03-29T22:29:00.032Z,2.47
2023-03-29T22:31:28.760Z,2.50
2023-03-29T22:33:58.388Z,2.23
2023-03-29T22:36:28.033Z,2.10
2023-03-29T22:38:56.948Z,2.40
2023-03-29T22:41:27.533Z,2.07
2023-03-29T22:43:58.013Z,3.20
2023-03-29T22:46:27.281Z,2.60
2023-03-29T22:48:55.652Z,2.40
2023-03-29T22:51:23.917Z,2.43
2023-03-29T22:53:52.265Z,3.60
2023-03-29T22:56:20.539Z,1.90
2023-03-29T22:58:48.777Z,2.60
2023-03-29T23:01:18.401Z,2.37
2023-03-29T23:03:46.692Z,2.50
2023-03-29T23:06:14.882Z,2.20
2023-03-29T23:08:43.136Z,2.47
2023-03-29T23:11:11.505Z,2.30
2023-03-29T23:13:42.604Z,2.47
2023-03-29T23:16:11.133Z,2.60
2023-03-29T23:18:40.822Z,2.27
2023-03-29T23:21:10.429Z,2.70
2023-03-29T23:23:38.712Z,3.07
2023-03-29T23:26:08.422Z,1.87
2023-03-29T23:28:36.747Z,2.20
2023-03-29T23:31:06.427Z,3.60
2023-03-29T23:33:35.929Z,1.83
2023-03-29T23:36:09.821Z,2.20
2023-03-29T23:38:39.708Z,2.03
2023-03-29T23:41:10.381Z,2.03
2023-03-29T23:43:40.652Z,3.00
2023-03-29T23:46:09.730Z,2.27
2023-03-29T23:48:38.549Z,2.30
2023-03-29T23:51:09.827Z,2.10
2023-03-29T23:53:38.363Z,2.50
2023-03-29T23:56:07.670Z,1.90
2023-03-29T23:58:37.249Z,1.83
